KBKV

Brooksville-Tampa Bay Regional Airport

Brooksville, Florida, USA
METAR KBKV 211253Z 12007KT 10SM CLR 22/21 A3038 RMK AO2 SLP286 T02220206
Observed Flight Rules
Feb-21 @ 12:53 UTC (21 minutes ago) Visual Flight Rules
Wind Visibility Clouds
120° at 7 knots 10 miles
  • Clear skies
Temperatures Readings
Current 22°C / 72°F
Dewpoint 21°C / 70°F
Humidity 94%
Altimeter 30.38" Hg
Pressure 1028.6 hPa
Elevation 20
METAR KBKV 211253Z 12007KT 10SM CLR 22/21 A3038 RMK AO2 SLP286 T02220206
Observed Flight Rules
Feb-21 @ 12:53 UTC
(21 minutes ago)
VFR
Wind Visibility
120° at 7 knots 10 miles
Clouds
  • Clear skies
Temperature Dewpoint
22°C / 72°F 21°C / 70°F
Humidity Altimeter Pressure
94% 30.38" Hg 1028.6 hPa